Terminal Aerodrome Forecast
Issued by NWS

Home | Current Version | Previous Version | Text Only | Print | Product List | Glossary Off
Versions: 1 2 3 4 5 6 7 8 9 10 11 12 13 14 15 16 17 18 19 20 21 22 23 24 25 26 27

000
FTUS43 KABR 230109 AAA
TAFATY
TAF AMD
KATY 230109Z 2301/2324 23009KT P6SM VCTS SCT050 BKN080CB OVC250
      TEMPO 2301/2302 VRB20G35KT 2SM TSRA BKN050CB OVC100
     FM230300 25006KT P6SM BKN200
     FM230400 26006KT P6SM VCSH BKN200
     FM230600 30006KT P6SM SHRA BKN090
     FM230700 31006KT P6SM SHRA VCTS BKN080CB
     FM230900 34007KT P6SM SHRA BKN030
     FM231100 02007KT P6SM OVC030
     FM231400 03006KT P6SM OVC008
     FM231600 04006KT P6SM -SHRA OVC008=

USA.gov is the U.S. government's official web portal to all federal, state and local government web resources and services.